aviador You're here:

CYPX Decoded Metar

PUVIRGNITUQ in QC, CANADA
Report Time2018-07-18 10:34:00
UTC Time2018-07-18 10:38:31
Flight Rules lifr LIFR
Wind220° at 02 kt
W.Decomp.*RWY 19: 1.3 kt HW 1.6 kt RCW
W.Rank220° ranks 25
Current wind is below 220° avg. (11.9)
Visibility4828 m
Phenomena:Mist
Clouds:Overcast 002 Hf
Ceiling200 ft
Temp03°C (ISA -12)
Dew Point03°C (100% RH)
AAT0.8°C
QNH1007 hPa
Density Alt-1,056 ft
Elevation75 ft
Report Wrong Elevation
Raw Report
SPECI CYPX 181034Z AUTO 22002KT 3SM BR OVC002 03/03 A2973 RMK SLP070=

Extra information for CYPX:More info

Metar Taf Metar & Taf Last 4 Metars F.Rules Stats Wind Profile Meteogram Temp Stats Airport Information Weather charts Add Link Nearby VenuesMetar ALERT Operation Metar Decoded Social comments